sensor_id;sensor_type;location;lat;lon;timestamp;P1;durP1;ratioP1;P2;durP2;ratioP2
23588;SDS011;11972;48.078;11.876;2022-11-18T00:00:32;4.20;;;1.40;;
23588;SDS011;11972;48.078;11.876;2022-11-18T00:04:32;3.38;;;1.38;;
23588;SDS011;11972;48.078;11.876;2022-11-18T00:08:33;2.42;;;1.48;;
23588;SDS011;11972;48.078;11.876;2022-11-18T00:12:33;1.10;;;1.00;;
23588;SDS011;11972;48.078;11.876;2022-11-18T00:20:54;2.47;;;1.30;;
23588;SDS011;11972;48.078;11.876;2022-11-18T00:24:54;1.48;;;1.10;;
23588;SDS011;11972;48.078;11.876;2022-11-18T00:28:54;1.52;;;1.25;;
23588;SDS011;11972;48.078;11.876;2022-11-18T00:32:55;2.58;;;0.63;;
23588;SDS011;11972;48.078;11.876;2022-11-18T00:36:55;1.42;;;0.90;;
23588;SDS011;11972;48.078;11.876;2022-11-18T00:41:02;1.40;;;0.68;;
23588;SDS011;11972;48.078;11.876;2022-11-18T00:45:03;0.77;;;0.77;;
23588;SDS011;11972;48.078;11.876;2022-11-18T00:49:04;1.55;;;0.90;;
23588;SDS011;11972;48.078;11.876;2022-11-18T00:53:05;1.17;;;0.80;;
23588;SDS011;11972;48.078;11.876;2022-11-18T00:57:05;1.08;;;0.60;;
23588;SDS011;11972;48.078;11.876;2022-11-18T01:01:05;1.55;;;0.88;;
23588;SDS011;11972;48.078;11.876;2022-11-18T01:05:06;0.98;;;0.77;;
23588;SDS011;11972;48.078;11.876;2022-11-18T01:09:06;3.25;;;0.60;;
23588;SDS011;11972;48.078;11.876;2022-11-18T01:13:09;0.52;;;0.40;;
23588;SDS011;11972;48.078;11.876;2022-11-18T01:17:21;2.63;;;0.50;;
23588;SDS011;11972;48.078;11.876;2022-11-18T01:21:21;0.52;;;0.30;;
23588;SDS011;11972;48.078;11.876;2022-11-18T01:25:22;0.90;;;0.38;;
23588;SDS011;11972;48.078;11.876;2022-11-18T01:29:23;0.40;;;0.30;;
23588;SDS011;11972;48.078;11.876;2022-11-18T01:33:23;0.70;;;0.40;;
23588;SDS011;11972;48.078;11.876;2022-11-18T01:37:23;1.08;;;0.30;;
23588;SDS011;11972;48.078;11.876;2022-11-18T01:41:24;1.45;;;0.90;;
23588;SDS011;11972;48.078;11.876;2022-11-18T01:45:30;4.13;;;1.42;;
23588;SDS011;11972;48.078;11.876;2022-11-18T01:49:33;2.05;;;1.40;;
23588;SDS011;11972;48.078;11.876;2022-11-18T01:53:35;1.60;;;0.95;;
23588;SDS011;11972;48.078;11.876;2022-11-18T01:57:39;1.13;;;0.73;;
23588;SDS011;11972;48.078;11.876;2022-11-18T02:01:41;2.88;;;0.77;;
23588;SDS011;11972;48.078;11.876;2022-11-18T02:05:42;0.75;;;0.70;;
23588;SDS011;11972;48.078;11.876;2022-11-18T02:09:45;1.00;;;0.70;;
23588;SDS011;11972;48.078;11.876;2022-11-18T02:13:46;1.30;;;0.80;;
23588;SDS011;11972;48.078;11.876;2022-11-18T02:17:54;1.27;;;0.73;;
23588;SDS011;11972;48.078;11.876;2022-11-18T02:26:50;2.38;;;0.80;;
23588;SDS011;11972;48.078;11.876;2022-11-18T02:31:07;1.20;;;0.80;;
23588;SDS011;11972;48.078;11.876;2022-11-18T02:39:47;0.77;;;0.73;;
23588;SDS011;11972;48.078;11.876;2022-11-18T02:43:58;2.47;;;0.70;;
23588;SDS011;11972;48.078;11.876;2022-11-18T02:48:07;1.38;;;0.90;;
23588;SDS011;11972;48.078;11.876;2022-11-18T02:52:10;2.80;;;0.82;;
23588;SDS011;11972;48.078;11.876;2022-11-18T02:56:13;1.35;;;0.80;;
23588;SDS011;11972;48.078;11.876;2022-11-18T03:00:15;1.13;;;0.63;;
23588;SDS011;11972;48.078;11.876;2022-11-18T03:04:16;1.65;;;0.77;;
23588;SDS011;11972;48.078;11.876;2022-11-18T03:08:19;3.00;;;1.30;;
23588;SDS011;11972;48.078;11.876;2022-11-18T03:25:19;0.77;;;0.50;;
23588;SDS011;11972;48.078;11.876;2022-11-18T03:29:43;0.70;;;0.40;;
23588;SDS011;11972;48.078;11.876;2022-11-18T03:33:55;1.65;;;0.52;;
23588;SDS011;11972;48.078;11.876;2022-11-18T03:38:05;0.68;;;0.50;;
23588;SDS011;11972;48.078;11.876;2022-11-18T03:42:30;0.43;;;0.40;;
23588;SDS011;11972;48.078;11.876;2022-11-18T03:46:34;0.60;;;0.30;;
23588;SDS011;11972;48.078;11.876;2022-11-18T03:50:41;0.35;;;0.20;;
23588;SDS011;11972;48.078;11.876;2022-11-18T03:54:51;0.38;;;0.30;;
23588;SDS011;11972;48.078;11.876;2022-11-18T03:58:56;0.63;;;0.30;;
23588;SDS011;11972;48.078;11.876;2022-11-18T04:11:18;1.10;;;0.43;;
23588;SDS011;11972;48.078;11.876;2022-11-18T04:15:45;0.57;;;0.30;;
23588;SDS011;11972;48.078;11.876;2022-11-18T04:19:46;0.60;;;0.35;;
23588;SDS011;11972;48.078;11.876;2022-11-18T04:23:46;0.20;;;0.20;;
23588;SDS011;11972;48.078;11.876;2022-11-18T04:27:47;3.85;;;0.43;;
23588;SDS011;11972;48.078;11.876;2022-11-18T04:31:47;3.03;;;0.47;;
23588;SDS011;11972;48.078;11.876;2022-11-18T04:35:47;7.53;;;0.40;;
23588;SDS011;11972;48.078;11.876;2022-11-18T04:39:48;1.42;;;0.40;;
23588;SDS011;11972;48.078;11.876;2022-11-18T04:43:48;3.33;;;0.70;;
23588;SDS011;11972;48.078;11.876;2022-11-18T04:47:48;1.88;;;0.50;;
23588;SDS011;11972;48.078;11.876;2022-11-18T04:51:49;3.88;;;0.60;;
23588;SDS011;11972;48.078;11.876;2022-11-18T04:55:50;4.88;;;0.85;;
23588;SDS011;11972;48.078;11.876;2022-11-18T04:59:50;2.42;;;0.70;;
23588;SDS011;11972;48.078;11.876;2022-11-18T05:03:51;2.10;;;0.63;;
23588;SDS011;11972;48.078;11.876;2022-11-18T05:07:51;1.38;;;0.60;;
23588;SDS011;11972;48.078;11.876;2022-11-18T05:11:52;1.27;;;0.70;;
23588;SDS011;11972;48.078;11.876;2022-11-18T05:16:11;1.02;;;0.50;;
23588;SDS011;11972;48.078;11.876;2022-11-18T05:20:11;1.35;;;0.47;;
23588;SDS011;11972;48.078;11.876;2022-11-18T05:24:12;0.55;;;0.40;;
23588;SDS011;11972;48.078;11.876;2022-11-18T05:28:13;0.77;;;0.35;;
23588;SDS011;11972;48.078;11.876;2022-11-18T05:32:13;1.17;;;0.40;;
23588;SDS011;11972;48.078;11.876;2022-11-18T05:36:15;1.33;;;0.68;;
23588;SDS011;11972;48.078;11.876;2022-11-18T05:40:17;0.70;;;0.50;;
23588;SDS011;11972;48.078;11.876;2022-11-18T05:44:17;0.77;;;0.50;;
23588;SDS011;11972;48.078;11.876;2022-11-18T05:48:17;0.43;;;0.30;;
23588;SDS011;11972;48.078;11.876;2022-11-18T05:52:18;0.40;;;0.30;;
23588;SDS011;11972;48.078;11.876;2022-11-18T05:56:28;0.47;;;0.30;;
23588;SDS011;11972;48.078;11.876;2022-11-18T06:00:32;2.38;;;0.35;;
23588;SDS011;11972;48.078;11.876;2022-11-18T06:04:35;1.95;;;0.40;;
23588;SDS011;11972;48.078;11.876;2022-11-18T06:08:39;0.20;;;0.10;;
23588;SDS011;11972;48.078;11.876;2022-11-18T06:12:44;0.10;;;0.10;;
23588;SDS011;11972;48.078;11.876;2022-11-18T06:16:49;0.10;;;0.10;;
23588;SDS011;11972;48.078;11.876;2022-11-18T06:20:54;1.38;;;0.20;;
23588;SDS011;11972;48.078;11.876;2022-11-18T06:24:59;0.20;;;0.20;;
23588;SDS011;11972;48.078;11.876;2022-11-18T06:28:59;2.47;;;0.40;;
23588;SDS011;11972;48.078;11.876;2022-11-18T06:33:00;0.63;;;0.22;;
23588;SDS011;11972;48.078;11.876;2022-11-18T06:37:10;0.70;;;0.50;;
23588;SDS011;11972;48.078;11.876;2022-11-18T06:41:11;0.30;;;0.20;;
23588;SDS011;11972;48.078;11.876;2022-11-18T06:45:12;0.10;;;0.10;;
23588;SDS011;11972;48.078;11.876;2022-11-18T06:49:12;0.50;;;0.17;;
23588;SDS011;11972;48.078;11.876;2022-11-18T06:53:13;0.40;;;0.20;;
23588;SDS011;11972;48.078;11.876;2022-11-18T06:57:13;0.20;;;0.20;;
23588;SDS011;11972;48.078;11.876;2022-11-18T07:01:17;1.30;;;0.13;;
23588;SDS011;11972;48.078;11.876;2022-11-18T07:09:22;0.57;;;0.10;;
23588;SDS011;11972;48.078;11.876;2022-11-18T07:13:23;0.52;;;0.10;;
23588;SDS011;11972;48.078;11.876;2022-11-18T07:17:23;0.50;;;0.10;;
23588;SDS011;11972;48.078;11.876;2022-11-18T07:21:25;0.10;;;0.10;;
23588;SDS011;11972;48.078;11.876;2022-11-18T07:25:26;0.75;;;0.20;;
23588;SDS011;11972;48.078;11.876;2022-11-18T07:29:27;0.20;;;0.20;;
23588;SDS011;11972;48.078;11.876;2022-11-18T07:33:27;0.70;;;0.30;;
23588;SDS011;11972;48.078;11.876;2022-11-18T07:37:28;0.60;;;0.20;;
23588;SDS011;11972;48.078;11.876;2022-11-18T07:41:28;0.20;;;0.10;;
23588;SDS011;11972;48.078;11.876;2022-11-18T07:45:29;0.10;;;0.10;;
23588;SDS011;11972;48.078;11.876;2022-11-18T07:49:29;1.10;;;0.20;;
23588;SDS011;11972;48.078;11.876;2022-11-18T07:53:30;0.35;;;0.15;;
23588;SDS011;11972;48.078;11.876;2022-11-18T07:57:31;0.10;;;0.10;;
23588;SDS011;11972;48.078;11.876;2022-11-18T08:01:31;0.13;;;0.10;;
23588;SDS011;11972;48.078;11.876;2022-11-18T08:05:32;0.32;;;0.10;;
23588;SDS011;11972;48.078;11.876;2022-11-18T08:09:32;0.15;;;0.10;;
23588;SDS011;11972;48.078;11.876;2022-11-18T08:13:32;0.30;;;0.20;;
23588;SDS011;11972;48.078;11.876;2022-11-18T08:17:34;1.25;;;0.30;;
23588;SDS011;11972;48.078;11.876;2022-11-18T08:21:34;2.50;;;0.40;;
23588;SDS011;11972;48.078;11.876;2022-11-18T08:25:34;0.50;;;0.20;;
23588;SDS011;11972;48.078;11.876;2022-11-18T08:29:35;0.70;;;0.30;;
23588;SDS011;11972;48.078;11.876;2022-11-18T08:33:35;0.25;;;0.25;;
23588;SDS011;11972;48.078;11.876;2022-11-18T08:37:37;0.40;;;0.28;;
23588;SDS011;11972;48.078;11.876;2022-11-18T08:41:38;0.70;;;0.30;;
23588;SDS011;11972;48.078;11.876;2022-11-18T08:45:41;0.30;;;0.20;;
23588;SDS011;11972;48.078;11.876;2022-11-18T08:49:41;0.57;;;0.43;;
23588;SDS011;11972;48.078;11.876;2022-11-18T08:53:42;0.60;;;0.30;;
23588;SDS011;11972;48.078;11.876;2022-11-18T08:57:42;0.80;;;0.30;;
23588;SDS011;11972;48.078;11.876;2022-11-18T09:01:42;0.20;;;0.20;;
23588;SDS011;11972;48.078;11.876;2022-11-18T09:05:43;0.60;;;0.40;;
23588;SDS011;11972;48.078;11.876;2022-11-18T09:09:43;0.80;;;0.40;;
23588;SDS011;11972;48.078;11.876;2022-11-18T09:13:44;0.88;;;0.40;;
23588;SDS011;11972;48.078;11.876;2022-11-18T09:17:45;0.73;;;0.43;;
23588;SDS011;11972;48.078;11.876;2022-11-18T09:21:45;0.90;;;0.30;;
23588;SDS011;11972;48.078;11.876;2022-11-18T09:25:46;0.80;;;0.30;;
23588;SDS011;11972;48.078;11.876;2022-11-18T09:29:46;0.45;;;0.30;;
23588;SDS011;11972;48.078;11.876;2022-11-18T09:33:46;0.30;;;0.30;;
23588;SDS011;11972;48.078;11.876;2022-11-18T09:37:47;0.30;;;0.30;;
23588;SDS011;11972;48.078;11.876;2022-11-18T09:41:52;0.95;;;0.50;;
23588;SDS011;11972;48.078;11.876;2022-11-18T09:46:01;0.30;;;0.30;;
23588;SDS011;11972;48.078;11.876;2022-11-18T09:50:11;0.73;;;0.50;;
23588;SDS011;11972;48.078;11.876;2022-11-18T09:54:21;0.50;;;0.50;;
23588;SDS011;11972;48.078;11.876;2022-11-18T09:58:31;0.50;;;0.50;;
23588;SDS011;11972;48.078;11.876;2022-11-18T10:06:55;0.50;;;0.40;;
23588;SDS011;11972;48.078;11.876;2022-11-18T10:20:32;0.88;;;0.70;;
23588;SDS011;11972;48.078;11.876;2022-11-18T10:24:50;2.03;;;1.20;;
23588;SDS011;11972;48.078;11.876;2022-11-18T10:28:52;1.60;;;0.70;;
23588;SDS011;11972;48.078;11.876;2022-11-18T10:32:53;0.95;;;0.60;;
23588;SDS011;11972;48.078;11.876;2022-11-18T10:37:02;0.73;;;0.50;;
23588;SDS011;11972;48.078;11.876;2022-11-18T10:41:13;0.50;;;0.40;;
23588;SDS011;11972;48.078;11.876;2022-11-18T10:49:20;0.77;;;0.47;;
23588;SDS011;11972;48.078;11.876;2022-11-18T10:57:39;0.90;;;0.50;;
23588;SDS011;11972;48.078;11.876;2022-11-18T11:01:42;0.50;;;0.30;;
23588;SDS011;11972;48.078;11.876;2022-11-18T11:05:42;0.75;;;0.40;;
23588;SDS011;11972;48.078;11.876;2022-11-18T11:09:43;0.75;;;0.50;;
23588;SDS011;11972;48.078;11.876;2022-11-18T11:13:44;2.15;;;0.40;;
23588;SDS011;11972;48.078;11.876;2022-11-18T11:17:47;2.47;;;0.82;;
23588;SDS011;11972;48.078;11.876;2022-11-18T11:22:10;2.45;;;0.93;;
23588;SDS011;11972;48.078;11.876;2022-11-18T11:30:32;6.30;;;0.80;;
23588;SDS011;11972;48.078;11.876;2022-11-18T11:52:27;1.05;;;0.70;;
23588;SDS011;11972;48.078;11.876;2022-11-18T12:00:44;0.98;;;0.70;;
23588;SDS011;11972;48.078;11.876;2022-11-18T12:05:02;2.47;;;0.88;;
23588;SDS011;11972;48.078;11.876;2022-11-18T12:09:17;1.08;;;0.75;;
23588;SDS011;11972;48.078;11.876;2022-11-18T12:17:53;0.60;;;0.60;;
23588;SDS011;11972;48.078;11.876;2022-11-18T12:22:02;1.25;;;0.80;;
23588;SDS011;11972;48.078;11.876;2022-11-18T12:26:05;1.17;;;1.02;;
23588;SDS011;11972;48.078;11.876;2022-11-18T12:30:16;1.23;;;1.13;;
23588;SDS011;11972;48.078;11.876;2022-11-18T12:38:30;0.70;;;0.65;;
23588;SDS011;11972;48.078;11.876;2022-11-18T12:47:02;1.15;;;0.80;;
23588;SDS011;11972;48.078;11.876;2022-11-18T12:55:21;0.50;;;0.50;;
23588;SDS011;11972;48.078;11.876;2022-11-18T12:59:29;1.35;;;0.60;;
23588;SDS011;11972;48.078;11.876;2022-11-18T13:03:31;0.40;;;0.40;;
23588;SDS011;11972;48.078;11.876;2022-11-18T13:07:32;1.80;;;0.40;;
23588;SDS011;11972;48.078;11.876;2022-11-18T13:11:58;2.05;;;0.47;;
23588;SDS011;11972;48.078;11.876;2022-11-18T13:16:03;1.65;;;0.45;;
23588;SDS011;11972;48.078;11.876;2022-11-18T13:24:41;0.30;;;0.30;;
23588;SDS011;11972;48.078;11.876;2022-11-18T13:32:49;0.73;;;0.28;;
23588;SDS011;11972;48.078;11.876;2022-11-18T13:36:53;0.30;;;0.30;;
23588;SDS011;11972;48.078;11.876;2022-11-18T13:40:55;0.40;;;0.40;;
23588;SDS011;11972;48.078;11.876;2022-11-18T13:45:11;0.35;;;0.28;;
23588;SDS011;11972;48.078;11.876;2022-11-18T13:49:13;1.42;;;0.30;;
23588;SDS011;11972;48.078;11.876;2022-11-18T13:53:28;1.15;;;0.30;;
23588;SDS011;11972;48.078;11.876;2022-11-18T13:57:32;1.30;;;0.57;;
23588;SDS011;11972;48.078;11.876;2022-11-18T14:01:34;2.03;;;0.70;;
23588;SDS011;11972;48.078;11.876;2022-11-18T14:05:34;0.80;;;0.60;;
23588;SDS011;11972;48.078;11.876;2022-11-18T14:09:35;1.90;;;0.95;;
23588;SDS011;11972;48.078;11.876;2022-11-18T14:13:36;1.70;;;1.15;;
23588;SDS011;11972;48.078;11.876;2022-11-18T14:17:52;3.08;;;1.95;;
23588;SDS011;11972;48.078;11.876;2022-11-18T14:30:33;3.63;;;1.10;;
23588;SDS011;11972;48.078;11.876;2022-11-18T14:34:38;1.98;;;1.30;;
23588;SDS011;11972;48.078;11.876;2022-11-18T14:42:48;1.65;;;1.40;;
23588;SDS011;11972;48.078;11.876;2022-11-18T14:46:49;2.70;;;1.30;;
23588;SDS011;11972;48.078;11.876;2022-11-18T14:50:52;4.18;;;1.90;;
23588;SDS011;11972;48.078;11.876;2022-11-18T14:54:53;2.50;;;2.30;;
23588;SDS011;11972;48.078;11.876;2022-11-18T14:58:53;2.70;;;2.50;;
23588;SDS011;11972;48.078;11.876;2022-11-18T15:02:54;2.75;;;2.55;;
23588;SDS011;11972;48.078;11.876;2022-11-18T15:06:54;2.70;;;2.50;;
23588;SDS011;11972;48.078;11.876;2022-11-18T15:10:55;2.83;;;1.80;;
23588;SDS011;11972;48.078;11.876;2022-11-18T15:14:55;4.63;;;2.30;;
23588;SDS011;11972;48.078;11.876;2022-11-18T15:18:56;1.98;;;1.80;;
23588;SDS011;11972;48.078;11.876;2022-11-18T15:22:59;2.30;;;1.40;;
23588;SDS011;11972;48.078;11.876;2022-11-18T15:26:59;3.65;;;1.45;;
23588;SDS011;11972;48.078;11.876;2022-11-18T15:31:04;3.30;;;1.00;;
23588;SDS011;11972;48.078;11.876;2022-11-18T15:35:04;0.90;;;0.77;;
23588;SDS011;11972;48.078;11.876;2022-11-18T15:39:05;1.45;;;0.93;;
23588;SDS011;11972;48.078;11.876;2022-11-18T15:43:05;2.53;;;0.70;;
23588;SDS011;11972;48.078;11.876;2022-11-18T15:47:05;1.17;;;0.80;;
23588;SDS011;11972;48.078;11.876;2022-11-18T15:51:06;1.17;;;0.70;;
23588;SDS011;11972;48.078;11.876;2022-11-18T15:55:07;2.35;;;0.70;;
23588;SDS011;11972;48.078;11.876;2022-11-18T15:59:08;1.63;;;0.70;;
23588;SDS011;11972;48.078;11.876;2022-11-18T16:03:10;0.80;;;0.75;;
23588;SDS011;11972;48.078;11.876;2022-11-18T16:07:11;0.57;;;0.50;;
23588;SDS011;11972;48.078;11.876;2022-11-18T16:11:12;1.10;;;0.60;;
23588;SDS011;11972;48.078;11.876;2022-11-18T16:15:32;0.77;;;0.57;;
23588;SDS011;11972;48.078;11.876;2022-11-18T16:19:42;0.90;;;0.70;;
23588;SDS011;11972;48.078;11.876;2022-11-18T16:23:42;4.65;;;2.00;;
23588;SDS011;11972;48.078;11.876;2022-11-18T16:27:43;1.15;;;0.75;;
23588;SDS011;11972;48.078;11.876;2022-11-18T16:31:44;0.88;;;0.50;;
23588;SDS011;11972;48.078;11.876;2022-11-18T16:35:49;2.55;;;0.52;;
23588;SDS011;11972;48.078;11.876;2022-11-18T16:39:49;0.68;;;0.60;;
23588;SDS011;11972;48.078;11.876;2022-11-18T16:43:50;1.48;;;0.57;;
23588;SDS011;11972;48.078;11.876;2022-11-18T16:47:50;1.60;;;0.43;;
23588;SDS011;11972;48.078;11.876;2022-11-18T16:51:51;1.30;;;1.20;;
23588;SDS011;11972;48.078;11.876;2022-11-18T16:55:55;1.35;;;1.13;;
23588;SDS011;11972;48.078;11.876;2022-11-18T17:00:03;1.08;;;0.70;;
23588;SDS011;11972;48.078;11.876;2022-11-18T17:04:05;2.10;;;0.80;;
23588;SDS011;11972;48.078;11.876;2022-11-18T17:08:06;1.67;;;1.08;;
23588;SDS011;11972;48.078;11.876;2022-11-18T17:12:06;2.05;;;0.93;;
23588;SDS011;11972;48.078;11.876;2022-11-18T17:16:08;1.02;;;0.90;;
23588;SDS011;11972;48.078;11.876;2022-11-18T17:20:09;1.17;;;1.08;;
23588;SDS011;11972;48.078;11.876;2022-11-18T17:24:11;3.35;;;1.10;;
23588;SDS011;11972;48.078;11.876;2022-11-18T17:28:12;1.55;;;1.10;;
23588;SDS011;11972;48.078;11.876;2022-11-18T17:32:13;1.48;;;1.35;;
23588;SDS011;11972;48.078;11.876;2022-11-18T17:36:14;2.47;;;1.10;;
23588;SDS011;11972;48.078;11.876;2022-11-18T17:40:16;1.40;;;0.95;;
23588;SDS011;11972;48.078;11.876;2022-11-18T17:44:17;1.20;;;1.10;;
23588;SDS011;11972;48.078;11.876;2022-11-18T17:48:18;1.50;;;1.02;;
23588;SDS011;11972;48.078;11.876;2022-11-18T17:52:19;1.60;;;0.90;;
23588;SDS011;11972;48.078;11.876;2022-11-18T17:56:19;2.90;;;1.17;;
23588;SDS011;11972;48.078;11.876;2022-11-18T18:00:20;3.22;;;1.35;;
23588;SDS011;11972;48.078;11.876;2022-11-18T18:04:21;2.95;;;1.10;;
23588;SDS011;11972;48.078;11.876;2022-11-18T18:08:21;2.33;;;1.30;;
23588;SDS011;11972;48.078;11.876;2022-11-18T18:12:21;1.30;;;1.20;;
23588;SDS011;11972;48.078;11.876;2022-11-18T18:20:45;1.60;;;1.40;;
23588;SDS011;11972;48.078;11.876;2022-11-18T18:24:45;1.77;;;1.42;;
23588;SDS011;11972;48.078;11.876;2022-11-18T18:28:45;4.40;;;1.58;;
23588;SDS011;11972;48.078;11.876;2022-11-18T18:32:46;2.40;;;1.70;;
23588;SDS011;11972;48.078;11.876;2022-11-18T18:36:47;1.92;;;1.58;;
23588;SDS011;11972;48.078;11.876;2022-11-18T18:40:47;2.92;;;2.72;;
23588;SDS011;11972;48.078;11.876;2022-11-18T18:44:47;4.30;;;2.00;;
23588;SDS011;11972;48.078;11.876;2022-11-18T18:53:08;1.60;;;1.50;;
23588;SDS011;11972;48.078;11.876;2022-11-18T18:57:08;2.30;;;1.70;;
23588;SDS011;11972;48.078;11.876;2022-11-18T19:01:13;2.70;;;1.73;;
23588;SDS011;11972;48.078;11.876;2022-11-18T19:05:14;2.10;;;1.90;;
23588;SDS011;11972;48.078;11.876;2022-11-18T19:09:15;2.45;;;2.25;;
23588;SDS011;11972;48.078;11.876;2022-11-18T19:13:15;3.33;;;2.30;;
23588;SDS011;11972;48.078;11.876;2022-11-18T19:17:15;2.90;;;2.70;;
23588;SDS011;11972;48.078;11.876;2022-11-18T19:21:16;3.50;;;3.20;;
23588;SDS011;11972;48.078;11.876;2022-11-18T19:25:16;3.53;;;2.85;;
23588;SDS011;11972;48.078;11.876;2022-11-18T19:29:17;2.95;;;2.45;;
23588;SDS011;11972;48.078;11.876;2022-11-18T19:33:18;3.70;;;2.75;;
23588;SDS011;11972;48.078;11.876;2022-11-18T19:37:18;2.58;;;2.30;;
23588;SDS011;11972;48.078;11.876;2022-11-18T19:41:19;3.30;;;2.95;;
23588;SDS011;11972;48.078;11.876;2022-11-18T19:45:19;3.28;;;2.90;;
23588;SDS011;11972;48.078;11.876;2022-11-18T19:49:19;2.72;;;2.33;;
23588;SDS011;11972;48.078;11.876;2022-11-18T19:53:20;4.32;;;2.58;;
23588;SDS011;11972;48.078;11.876;2022-11-18T19:57:33;2.72;;;2.30;;
23588;SDS011;11972;48.078;11.876;2022-11-18T20:01:34;2.42;;;2.22;;
23588;SDS011;11972;48.078;11.876;2022-11-18T20:05:34;2.30;;;2.10;;
23588;SDS011;11972;48.078;11.876;2022-11-18T20:09:53;3.85;;;2.00;;
23588;SDS011;11972;48.078;11.876;2022-11-18T20:13:53;3.40;;;2.20;;
23588;SDS011;11972;48.078;11.876;2022-11-18T20:17:53;2.20;;;2.00;;
23588;SDS011;11972;48.078;11.876;2022-11-18T20:21:54;2.60;;;2.40;;
23588;SDS011;11972;48.078;11.876;2022-11-18T20:25:54;3.03;;;2.58;;
23588;SDS011;11972;48.078;11.876;2022-11-18T20:29:54;3.05;;;2.08;;
23588;SDS011;11972;48.078;11.876;2022-11-18T20:33:55;1.98;;;1.77;;
23588;SDS011;11972;48.078;11.876;2022-11-18T20:37:56;2.10;;;1.58;;
23588;SDS011;11972;48.078;11.876;2022-11-18T20:41:56;2.92;;;1.77;;
23588;SDS011;11972;48.078;11.876;2022-11-18T20:46:16;2.20;;;2.00;;
23588;SDS011;11972;48.078;11.876;2022-11-18T20:50:18;3.95;;;1.60;;
23588;SDS011;11972;48.078;11.876;2022-11-18T20:54:18;1.75;;;1.60;;
23588;SDS011;11972;48.078;11.876;2022-11-18T20:58:18;1.92;;;1.48;;
23588;SDS011;11972;48.078;11.876;2022-11-18T21:02:19;2.85;;;1.45;;
23588;SDS011;11972;48.078;11.876;2022-11-18T21:06:20;2.45;;;1.58;;
23588;SDS011;11972;48.078;11.876;2022-11-18T21:10:23;2.20;;;1.50;;
23588;SDS011;11972;48.078;11.876;2022-11-18T21:14:24;2.08;;;1.35;;
23588;SDS011;11972;48.078;11.876;2022-11-18T21:18:27;1.52;;;1.25;;
23588;SDS011;11972;48.078;11.876;2022-11-18T21:22:28;1.88;;;1.27;;
23588;SDS011;11972;48.078;11.876;2022-11-18T21:26:29;3.47;;;0.85;;
23588;SDS011;11972;48.078;11.876;2022-11-18T21:30:31;2.63;;;0.98;;
23588;SDS011;11972;48.078;11.876;2022-11-18T21:34:31;1.83;;;0.90;;
23588;SDS011;11972;48.078;11.876;2022-11-18T21:38:31;2.45;;;0.75;;
23588;SDS011;11972;48.078;11.876;2022-11-18T21:42:32;5.55;;;0.95;;
23588;SDS011;11972;48.078;11.876;2022-11-18T21:46:32;1.40;;;0.57;;
23588;SDS011;11972;48.078;11.876;2022-11-18T21:50:34;2.70;;;0.95;;
23588;SDS011;11972;48.078;11.876;2022-11-18T21:54:34;2.15;;;0.75;;
23588;SDS011;11972;48.078;11.876;2022-11-18T21:58:35;1.92;;;0.90;;
23588;SDS011;11972;48.078;11.876;2022-11-18T22:02:36;1.23;;;0.80;;
23588;SDS011;11972;48.078;11.876;2022-11-18T22:06:37;1.08;;;0.70;;
23588;SDS011;11972;48.078;11.876;2022-11-18T22:10:37;2.63;;;0.98;;
23588;SDS011;11972;48.078;11.876;2022-11-18T22:14:38;0.95;;;0.70;;
23588;SDS011;11972;48.078;11.876;2022-11-18T22:18:40;2.75;;;0.93;;
23588;SDS011;11972;48.078;11.876;2022-11-18T22:22:42;0.93;;;0.60;;
23588;SDS011;11972;48.078;11.876;2022-11-18T22:26:42;0.85;;;0.65;;
23588;SDS011;11972;48.078;11.876;2022-11-18T22:30:42;1.00;;;0.60;;
23588;SDS011;11972;48.078;11.876;2022-11-18T22:34:43;2.60;;;0.80;;
23588;SDS011;11972;48.078;11.876;2022-11-18T22:38:43;3.63;;;0.73;;
23588;SDS011;11972;48.078;11.876;2022-11-18T22:42:44;0.65;;;0.65;;
23588;SDS011;11972;48.078;11.876;2022-11-18T22:46:47;0.88;;;0.43;;
23588;SDS011;11972;48.078;11.876;2022-11-18T22:50:54;1.45;;;0.70;;
23588;SDS011;11972;48.078;11.876;2022-11-18T22:54:57;0.98;;;0.60;;
23588;SDS011;11972;48.078;11.876;2022-11-18T22:58:58;1.48;;;0.60;;
23588;SDS011;11972;48.078;11.876;2022-11-18T23:02:58;1.13;;;0.70;;
23588;SDS011;11972;48.078;11.876;2022-11-18T23:06:58;1.73;;;0.60;;
23588;SDS011;11972;48.078;11.876;2022-11-18T23:15:05;3.05;;;1.45;;
23588;SDS011;11972;48.078;11.876;2022-11-18T23:19:07;1.50;;;0.80;;
23588;SDS011;11972;48.078;11.876;2022-11-18T23:23:09;1.13;;;0.60;;
23588;SDS011;11972;48.078;11.876;2022-11-18T23:27:10;0.47;;;0.47;;
23588;SDS011;11972;48.078;11.876;2022-11-18T23:31:17;1.30;;;0.50;;
23588;SDS011;11972;48.078;11.876;2022-11-18T23:35:19;1.10;;;0.50;;
23588;SDS011;11972;48.078;11.876;2022-11-18T23:39:19;1.42;;;0.32;;
23588;SDS011;11972;48.078;11.876;2022-11-18T23:43:20;0.35;;;0.30;;
23588;SDS011;11972;48.078;11.876;2022-11-18T23:47:20;0.55;;;0.50;;
23588;SDS011;11972;48.078;11.876;2022-11-18T23:51:21;0.65;;;0.50;;
23588;SDS011;11972;48.078;11.876;2022-11-18T23:55:23;0.57;;;0.50;;
23588;SDS011;11972;48.078;11.876;2022-11-18T23:59:23;0.90;;;0.63;;
